createdAt,value
2022-09-05T00:02:06.515Z,52.56
2022-09-05T00:05:10.511Z,52.74
2022-09-05T00:08:18.092Z,52.67
2022-09-05T00:11:40.834Z,52.92
2022-09-05T00:14:34.325Z,52.61
2022-09-05T00:22:09.511Z,53.12
2022-09-05T00:24:28.426Z,53.26
2022-09-05T00:25:06.871Z,53.56
2022-09-05T00:28:14.532Z,53.58
2022-09-05T00:31:55.941Z,53.97
2022-09-05T00:34:58.027Z,53.95
2022-09-05T00:37:46.938Z,54.29
2022-09-05T00:40:37.019Z,54.94
2022-09-05T00:43:25.748Z,54.92
2022-09-05T00:46:17.313Z,54.31
2022-09-05T00:49:24.118Z,55.07
2022-09-05T00:52:41.424Z,55.90
2022-09-05T00:55:48.845Z,55.44
2022-09-05T00:58:42.705Z,55.13
2022-09-05T01:01:42.160Z,55.26
2022-09-05T01:04:40.873Z,55.15
2022-09-05T01:07:57.184Z,55.22
2022-09-05T01:10:51.472Z,54.71
2022-09-05T01:13:54.758Z,55.25
2022-09-05T01:17:08.780Z,55.19
2022-09-05T01:20:19.210Z,55.32
2022-09-05T01:23:42.023Z,55.30
2022-09-05T01:27:04.941Z,55.57
2022-09-05T01:29:59.287Z,55.92
2022-09-05T01:33:16.502Z,55.93
2022-09-05T01:36:05.487Z,55.82
2022-09-05T01:39:51.586Z,56.46
2022-09-05T01:42:36.978Z,57.06
2022-09-05T01:45:39.454Z,57.37
2022-09-05T01:48:35.571Z,58.03
2022-09-05T01:51:55.271Z,58.39
2022-09-05T01:54:57.307Z,58.40
2022-09-05T01:58:07.560Z,58.54
2022-09-05T02:01:25.220Z,58.67
2022-09-05T02:04:31.356Z,58.84
2022-09-05T02:07:31.308Z,59.48
2022-09-05T02:10:38.071Z,62.74
2022-09-05T02:13:35.576Z,65.40
2022-09-05T02:16:44.276Z,64.98
2022-09-05T02:19:31.519Z,63.67
2022-09-05T02:22:28.763Z,61.70
2022-09-05T02:26:01.490Z,56.52
2022-09-05T02:28:33.185Z,54.88
2022-09-05T02:31:42.165Z,56.92
2022-09-05T02:34:34.554Z,56.29
2022-09-05T02:41:55.590Z,57.39
2022-09-05T02:45:03.908Z,62.17
2022-09-05T02:45:21.698Z,63.60
2022-09-05T02:47:23.399Z,63.48
2022-09-05T02:53:59.162Z,62.44
2022-09-05T02:57:39.947Z,60.99
2022-09-05T02:57:40.980Z,61.41
2022-09-05T03:00:16.316Z,60.95
2022-09-05T03:03:12.213Z,60.24
2022-09-05T03:06:18.359Z,57.15
2022-09-05T03:09:25.962Z,55.56
2022-09-05T03:12:42.758Z,56.35
2022-09-05T03:15:37.186Z,57.09
2022-09-05T03:18:42.543Z,60.99
2022-09-05T03:21:57.366Z,63.85
2022-09-05T03:25:24.732Z,63.36
2022-09-05T03:28:21.932Z,63.44
2022-09-05T03:31:29.753Z,62.01
2022-09-05T03:34:47.757Z,61.60
2022-09-05T03:38:05.287Z,61.16
2022-09-05T03:41:09.421Z,61.19
2022-09-05T03:44:30.431Z,60.39
2022-09-05T03:47:31.047Z,60.77
2022-09-05T03:53:29.386Z,60.32
2022-09-05T03:57:15.964Z,60.16
2022-09-05T03:57:27.200Z,57.04
2022-09-05T04:00:12.194Z,54.96
2022-09-05T04:08:09.967Z,55.98
2022-09-05T04:08:27.485Z,57.16
2022-09-05T04:10:21.164Z,61.79
2022-09-05T04:13:28.851Z,64.77
2022-09-05T04:16:17.993Z,64.71
2022-09-05T04:19:24.669Z,64.57
2022-09-05T04:22:17.626Z,64.20
2022-09-05T04:25:18.945Z,63.10
2022-09-05T04:28:21.965Z,62.30
2022-09-05T04:31:10.758Z,61.57
2022-09-05T04:34:20.234Z,61.15
2022-09-05T04:37:09.454Z,60.91
2022-09-05T04:39:54.518Z,60.38
2022-09-05T04:42:40.650Z,58.57
2022-09-05T04:45:27.431Z,56.89
2022-09-05T04:48:15.830Z,57.12
2022-09-05T04:51:36.638Z,57.87
2022-09-05T04:54:40.522Z,61.02
2022-09-05T04:57:48.163Z,63.31
2022-09-05T05:06:00.448Z,62.60
2022-09-05T05:06:18.131Z,61.88
2022-09-05T05:07:08.015Z,60.38
2022-09-05T05:10:55.399Z,60.11
2022-09-05T05:18:03.083Z,56.92
2022-09-05T05:18:16.388Z,54.83
2022-09-05T05:20:41.239Z,55.46
2022-09-05T05:24:00.736Z,55.16
2022-09-05T05:26:57.080Z,55.67
2022-09-05T05:30:02.436Z,57.19
2022-09-05T05:32:49.299Z,56.90
2022-09-05T05:35:37.091Z,57.60
2022-09-05T05:38:47.309Z,56.34
2022-09-05T05:41:48.839Z,56.32
2022-09-05T05:44:36.700Z,56.57
2022-09-05T05:47:31.891Z,56.84
2022-09-05T05:50:49.930Z,56.83
2022-09-05T05:54:12.687Z,56.40
2022-09-05T05:57:22.992Z,55.67
2022-09-05T06:00:28.044Z,55.45
2022-09-05T06:03:35.499Z,55.41
2022-09-05T06:06:49.886Z,54.79
2022-09-05T06:14:51.404Z,54.30
2022-09-05T06:14:58.263Z,54.50
2022-09-05T06:17:28.329Z,54.02
2022-09-05T06:22:07.595Z,53.16
2022-09-05T06:24:02.091Z,52.46
2022-09-05T06:26:59.905Z,52.34
2022-09-05T06:30:07.834Z,51.19
2022-09-05T06:33:15.275Z,50.61
2022-09-05T06:36:31.009Z,51.06
2022-09-05T06:39:45.210Z,50.65
2022-09-05T06:42:44.598Z,50.31
2022-09-05T06:45:37.547Z,50.11
2022-09-05T06:49:32.051Z,50.04
2022-09-05T06:52:48.527Z,49.45
2022-09-05T06:55:53.438Z,48.50
2022-09-05T06:58:53.993Z,47.91
2022-09-05T07:02:01.060Z,47.67
2022-09-05T07:05:37.139Z,46.96
2022-09-05T07:08:35.285Z,46.28
2022-09-05T07:11:33.123Z,45.83
2022-09-05T07:14:28.019Z,45.98
2022-09-05T07:17:17.365Z,44.71
2022-09-05T07:20:13.444Z,44.54
2022-09-05T07:23:23.105Z,43.86
2022-09-05T07:26:51.879Z,43.23
2022-09-05T07:29:39.489Z,42.87
2022-09-05T07:32:42.830Z,42.56
2022-09-05T07:35:31.234Z,42.42
2022-09-05T07:38:45.589Z,41.78
2022-09-05T07:41:39.748Z,41.46
2022-09-05T07:44:40.442Z,41.14
2022-09-05T07:47:32.373Z,40.81
2022-09-05T07:52:10.718Z,40.61
2022-09-05T07:57:09.516Z,39.53
2022-09-05T07:57:22.452Z,39.61
2022-09-05T08:00:26.000Z,38.86
2022-09-05T08:03:15.211Z,39.34
2022-09-05T08:06:05.371Z,38.58
2022-09-05T08:09:21.295Z,38.58
2022-09-05T08:12:28.243Z,37.97
2022-09-05T08:15:27.176Z,38.27
2022-09-05T08:18:36.720Z,37.45
2022-09-05T08:21:42.389Z,35.99
2022-09-05T08:24:37.989Z,35.94
2022-09-05T08:27:26.061Z,36.69
2022-09-05T08:30:26.051Z,37.82
2022-09-05T08:33:21.821Z,36.82
2022-09-05T08:36:30.400Z,34.11
2022-09-05T08:39:26.108Z,30.81
2022-09-05T08:42:26.169Z,25.20
2022-09-05T08:46:47.177Z,25.59
2022-09-05T08:49:11.433Z,26.77
2022-09-05T08:52:25.140Z,25.27
2022-09-05T08:55:19.874Z,23.26
2022-09-05T08:58:33.989Z,19.37
2022-09-05T09:01:59.321Z,19.12
2022-09-05T09:05:01.130Z,18.77
2022-09-05T09:08:26.863Z,19.53
2022-09-05T09:11:41.608Z,23.89
2022-09-05T09:14:35.607Z,19.73
2022-09-05T09:17:30.879Z,18.57
2022-09-05T09:20:28.632Z,19.36
2022-09-05T09:23:31.932Z,18.19
2022-09-05T09:26:32.456Z,16.64
2022-09-05T09:29:18.288Z,17.26
2022-09-05T09:32:17.741Z,16.41
2022-09-05T09:35:24.310Z,15.66
2022-09-05T09:38:33.811Z,13.02
2022-09-05T09:41:31.185Z,12.44
2022-09-05T09:44:35.229Z,12.74
2022-09-05T09:47:33.608Z,13.99
2022-09-05T09:50:22.586Z,11.31
2022-09-05T09:53:17.787Z,10.95
2022-09-05T09:56:32.534Z,12.78
2022-09-05T09:59:36.234Z,13.02
2022-09-05T10:07:30.447Z,9.47
2022-09-05T10:10:43.645Z,11.07
2022-09-05T10:10:44.353Z,10.80
2022-09-05T10:13:17.177Z,8.08
2022-09-05T10:16:29.738Z,8.59
2022-09-05T10:22:41.907Z,8.91
2022-09-05T10:25:49.237Z,9.50
2022-09-05T10:28:37.238Z,8.67
2022-09-05T10:35:05.252Z,8.79
2022-09-05T10:35:24.269Z,10.43
2022-09-05T10:38:30.240Z,9.96
2022-09-05T10:41:22.107Z,8.58
2022-09-05T10:44:10.900Z,9.40
2022-09-05T10:47:34.893Z,9.31
2022-09-05T10:50:28.315Z,8.26
2022-09-05T10:53:51.136Z,9.05
2022-09-05T10:56:47.744Z,8.95
2022-09-05T11:02:20.361Z,9.87
2022-09-05T11:02:58.244Z,11.19
2022-09-05T11:05:54.585Z,10.24
2022-09-05T11:08:45.701Z,10.35
2022-09-05T11:11:40.087Z,9.96
2022-09-05T11:14:35.385Z,11.00
2022-09-05T11:17:40.149Z,10.97
2022-09-05T11:20:54.380Z,11.01
2022-09-05T11:23:43.341Z,10.58
2022-09-05T11:26:35.700Z,11.40
2022-09-05T11:29:43.379Z,12.16
2022-09-05T11:39:50.797Z,12.66
2022-09-05T11:40:06.361Z,13.34
2022-09-05T11:43:34.204Z,14.56
2022-09-05T11:46:43.844Z,14.79
2022-09-05T11:49:30.730Z,15.28
2022-09-05T11:52:41.179Z,15.14
2022-09-05T11:55:43.091Z,15.91
2022-09-05T11:58:57.676Z,16.98
2022-09-05T12:02:17.075Z,16.78
2022-09-05T12:05:48.276Z,17.70
2022-09-05T12:08:35.543Z,18.15
2022-09-05T12:11:20.730Z,18.31
2022-09-05T12:14:28.349Z,18.88
2022-09-05T12:17:35.540Z,18.88
2022-09-05T12:20:49.428Z,20.11
2022-09-05T12:27:40.300Z,23.63
2022-09-05T12:30:33.617Z,22.93
2022-09-05T12:36:04.239Z,21.11
2022-09-05T12:41:35.732Z,21.44
2022-09-05T12:41:41.476Z,21.64
2022-09-05T12:41:42.340Z,20.83
2022-09-05T12:44:39.059Z,21.39
2022-09-05T12:46:23.693Z,21.68
2022-09-05T12:49:17.365Z,22.51
2022-09-05T12:52:05.980Z,22.80
2022-09-05T12:54:57.247Z,22.27
2022-09-05T13:00:52.517Z,22.30
2022-09-05T13:03:11.190Z,22.52
2022-09-05T13:04:19.607Z,23.02
2022-09-05T13:07:21.107Z,23.46
2022-09-05T13:11:39.214Z,24.80
2022-09-05T13:14:56.827Z,24.26
2022-09-05T13:16:31.315Z,25.62
2022-09-05T13:19:30.605Z,25.17
2022-09-05T13:22:19.552Z,25.54
2022-09-05T13:25:16.593Z,25.32
2022-09-05T13:28:08.534Z,25.51
2022-09-05T13:37:55.197Z,26.20
2022-09-05T13:38:00.574Z,25.87
2022-09-05T13:38:19.483Z,26.18
2022-09-05T13:40:45.502Z,26.41
2022-09-05T13:43:38.184Z,26.67
2022-09-05T13:46:36.731Z,27.29
2022-09-05T13:49:37.074Z,27.31
2022-09-05T13:52:29.627Z,28.24
2022-09-05T13:55:44.985Z,27.77
2022-09-05T13:58:40.025Z,27.75
2022-09-05T14:02:25.012Z,28.05
2022-09-05T14:05:44.456Z,28.12
2022-09-05T14:08:36.823Z,27.99
2022-09-05T14:11:45.026Z,28.03
2022-09-05T14:15:08.963Z,28.14
2022-09-05T14:17:58.087Z,27.77
2022-09-05T14:21:10.760Z,27.46
2022-09-05T14:23:58.813Z,27.53
2022-09-05T14:27:06.917Z,27.58
2022-09-05T14:29:48.292Z,28.42
2022-09-05T14:37:41.814Z,28.19
2022-09-05T14:37:53.122Z,28.04
2022-09-05T14:39:08.417Z,28.15
2022-09-05T14:41:39.997Z,28.32
2022-09-05T14:44:21.754Z,28.70
2022-09-05T14:46:56.918Z,28.63
2022-09-05T14:49:52.417Z,28.32
2022-09-05T14:52:24.851Z,28.34
2022-09-05T15:02:38.684Z,28.45
2022-09-05T15:02:42.071Z,28.90
2022-09-05T15:06:59.605Z,29.04
2022-09-05T15:11:25.583Z,28.68
2022-09-05T15:12:33.069Z,28.39
2022-09-05T15:15:06.733Z,28.39
2022-09-05T15:17:34.972Z,29.12
2022-09-05T15:20:08.333Z,29.08
2022-09-05T15:22:39.656Z,29.46
2022-09-05T15:25:16.766Z,29.27
2022-09-05T15:27:46.761Z,29.00
2022-09-05T15:30:34.990Z,29.57
2022-09-05T15:33:25.476Z,29.51
2022-09-05T15:35:55.413Z,29.79
2022-09-05T15:38:55.006Z,30.66
2022-09-05T15:41:23.926Z,29.99
2022-09-05T15:44:01.334Z,30.72
2022-09-05T15:46:41.167Z,31.49
2022-09-05T15:49:14.418Z,31.15
2022-09-05T15:51:53.234Z,31.56
2022-09-05T15:54:38.293Z,31.39
2022-09-05T15:57:17.792Z,32.10
2022-09-05T15:59:49.215Z,32.63
2022-09-05T16:02:23.510Z,32.80
2022-09-05T16:10:28.966Z,32.58
2022-09-05T16:10:37.976Z,32.46
2022-09-05T16:14:30.160Z,33.14
2022-09-05T16:23:11.794Z,33.67
2022-09-05T16:23:13.956Z,33.85
2022-09-05T16:23:24.296Z,33.96
2022-09-05T16:26:24.805Z,33.50
2022-09-05T16:29:10.391Z,33.95
2022-09-05T16:31:47.092Z,34.10
2022-09-05T16:34:43.284Z,35.59
2022-09-05T16:37:14.260Z,35.58
2022-09-05T16:39:50.281Z,36.17
2022-09-05T16:42:46.017Z,37.32
2022-09-05T16:45:28.909Z,37.11
2022-09-05T16:48:26.175Z,36.69
2022-09-05T16:51:13.287Z,37.83
2022-09-05T16:53:58.267Z,39.47
2022-09-05T16:56:45.744Z,39.65
2022-09-05T16:59:34.331Z,40.38
2022-09-05T17:02:20.011Z,41.90
2022-09-05T17:05:10.721Z,41.29
2022-09-05T17:07:56.603Z,42.61
2022-09-05T17:10:27.382Z,43.12
2022-09-05T17:12:55.766Z,43.98
2022-09-05T17:15:29.158Z,44.00
2022-09-05T17:18:21.768Z,43.33
2022-09-05T17:20:55.009Z,43.17
2022-09-05T17:29:18.295Z,44.88
2022-09-05T17:29:34.291Z,45.12
2022-09-05T17:32:47.221Z,44.97
2022-09-05T17:35:21.864Z,45.97
2022-09-05T17:37:50.336Z,46.69
2022-09-05T17:40:54.879Z,48.35
2022-09-05T17:43:28.877Z,48.32
2022-09-05T17:46:36.690Z,49.61
2022-09-05T17:49:18.550Z,49.51
2022-09-05T17:51:51.864Z,51.99
2022-09-05T17:54:27.799Z,53.38
2022-09-05T17:56:55.528Z,53.01
2022-09-05T17:59:27.174Z,54.91
2022-09-05T18:02:07.221Z,54.74
2022-09-05T18:04:45.049Z,55.27
2022-09-05T18:07:31.090Z,55.22
2022-09-05T18:10:14.736Z,55.54
2022-09-05T18:13:12.451Z,56.19
2022-09-05T18:15:40.054Z,58.23
2022-09-05T18:21:21.090Z,58.95
2022-09-05T18:23:54.806Z,55.67
2022-09-05T18:26:26.313Z,56.48
2022-09-05T18:29:00.335Z,57.16
2022-09-05T18:31:41.030Z,55.66
2022-09-05T18:34:13.271Z,56.05
2022-09-05T18:36:41.842Z,57.86
2022-09-05T18:39:24.880Z,57.72
2022-09-05T18:42:33.650Z,57.77
2022-09-05T18:45:32.878Z,57.67
2022-09-05T18:48:01.734Z,58.44
2022-09-05T18:50:33.973Z,57.39
2022-09-05T18:53:09.033Z,62.12
2022-09-05T18:56:11.126Z,64.02
2022-09-05T18:58:53.248Z,64.77
2022-09-05T19:01:33.955Z,62.63
2022-09-05T19:04:05.366Z,60.95
2022-09-05T19:06:37.915Z,60.30
2022-09-05T19:09:14.173Z,58.69
2022-09-05T19:11:53.378Z,56.45
2022-09-05T19:14:30.382Z,55.64
2022-09-05T19:17:10.052Z,53.59
2022-09-05T19:20:10.917Z,55.09
2022-09-05T19:23:11.530Z,52.22
2022-09-05T19:25:47.265Z,55.45
2022-09-05T19:33:28.433Z,58.37
2022-09-05T19:36:54.644Z,63.06
2022-09-05T19:37:03.963Z,61.04
2022-09-05T19:37:29.437Z,63.08
2022-09-05T19:42:42.046Z,61.74
2022-09-05T19:47:37.380Z,59.77
2022-09-05T19:47:40.836Z,60.77
2022-09-05T19:48:30.713Z,57.56
2022-09-05T19:51:17.470Z,55.22
2022-09-05T19:53:53.938Z,55.61
2022-09-05T19:56:37.781Z,57.06
2022-09-05T19:59:23.026Z,59.38
2022-09-05T20:01:53.098Z,60.59
2022-09-05T20:04:21.575Z,62.48
2022-09-05T20:06:50.242Z,62.65
2022-09-05T20:09:20.562Z,62.35
2022-09-05T20:11:54.718Z,61.34
2022-09-05T20:14:30.704Z,60.97
2022-09-05T20:17:23.339Z,58.39
2022-09-05T20:20:12.310Z,55.94
2022-09-05T20:22:49.468Z,56.44
2022-09-05T20:25:36.122Z,57.50
2022-09-05T20:28:10.350Z,59.03
2022-09-05T20:30:45.312Z,61.15
2022-09-05T20:34:00.818Z,63.73
2022-09-05T20:43:09.667Z,62.42
2022-09-05T20:43:22.127Z,61.51
2022-09-05T20:43:22.129Z,61.91
2022-09-05T20:45:58.783Z,61.11
2022-09-05T20:54:04.876Z,60.22
2022-09-05T20:54:22.576Z,59.70
2022-09-05T20:54:31.937Z,57.67
2022-09-05T20:57:18.621Z,55.89
2022-09-05T20:59:50.137Z,56.59
2022-09-05T21:02:20.803Z,58.14
2022-09-05T21:05:21.168Z,60.64
2022-09-05T21:08:02.448Z,62.64
2022-09-05T21:10:56.063Z,62.73
2022-09-05T21:13:27.426Z,61.73
2022-09-05T21:15:56.065Z,61.50
2022-09-05T21:18:33.330Z,61.10
2022-09-05T21:21:25.727Z,59.86
2022-09-05T21:24:16.858Z,56.99
2022-09-05T21:26:48.478Z,56.69
2022-09-05T21:29:17.623Z,60.20
2022-09-05T21:31:54.416Z,61.51
2022-09-05T21:34:22.844Z,62.29
2022-09-05T21:36:59.221Z,61.71
2022-09-05T21:39:54.000Z,61.05
2022-09-05T21:44:46.786Z,60.69
2022-09-05T21:47:43.654Z,60.42
2022-09-05T21:48:11.772Z,60.60
2022-09-05T21:50:45.126Z,59.71
2022-09-05T21:57:00.405Z,57.63
2022-09-05T21:59:16.303Z,56.16
2022-09-05T21:59:25.570Z,56.67
2022-09-05T22:01:56.714Z,57.51
2022-09-05T22:04:24.789Z,61.23
2022-09-05T22:06:54.259Z,64.10
2022-09-05T22:09:22.558Z,64.00
2022-09-05T22:11:51.483Z,63.74
2022-09-05T22:14:20.868Z,63.04
2022-09-05T22:16:51.542Z,60.80
2022-09-05T22:19:36.979Z,60.93
2022-09-05T22:22:16.062Z,60.71
2022-09-05T22:24:55.494Z,60.07
2022-09-05T22:27:25.521Z,60.31
2022-09-05T22:29:53.462Z,58.45
2022-09-05T22:32:33.750Z,56.97
2022-09-05T22:35:26.880Z,57.35
2022-09-05T22:38:00.271Z,57.87
2022-09-05T22:40:30.238Z,59.88
2022-09-05T22:43:00.394Z,61.63
2022-09-05T22:45:29.748Z,63.05
2022-09-05T22:47:58.591Z,61.98
2022-09-05T22:50:26.469Z,61.87
2022-09-05T22:52:54.184Z,61.53
2022-09-05T22:55:22.191Z,60.77
2022-09-05T22:57:50.028Z,59.53
2022-09-05T23:00:17.819Z,56.77
2022-09-05T23:02:48.986Z,56.80
2022-09-05T23:05:19.412Z,57.00
2022-09-05T23:07:47.262Z,57.89
2022-09-05T23:10:15.011Z,58.22
2022-09-05T23:12:42.668Z,61.21
2022-09-05T23:15:10.640Z,63.10
2022-09-05T23:17:38.596Z,62.98
2022-09-05T23:20:06.869Z,60.27
2022-09-05T23:22:40.197Z,57.17
2022-09-05T23:25:08.255Z,57.36
2022-09-05T23:27:36.855Z,57.75
2022-09-05T23:30:07.318Z,58.91
2022-09-05T23:32:35.040Z,60.70
2022-09-05T23:35:03.247Z,62.56
2022-09-05T23:37:31.035Z,61.34
2022-09-05T23:39:58.766Z,59.39
2022-09-05T23:42:27.145Z,59.19
2022-09-05T23:44:54.841Z,59.33
2022-09-05T23:47:22.778Z,61.27
2022-09-05T23:49:50.386Z,61.58
2022-09-05T23:52:18.100Z,61.92
2022-09-05T23:54:45.823Z,61.17
2022-09-05T23:57:13.611Z,59.48
2022-09-05T23:59:41.330Z,58.30
